Time;durP1;ratioP1;P1;durP2;ratioP2;P2;SDS_P1;SDS_P2;PMS_P1;PMS_P2;Temp;Humidity;BMP_temperature;BMP_pressure;BME280_temperature;BME280_humidity;BME280_pressure;Samples;Min_cycle;Max_cycle;Signal;HPM_P1;HPM_P2
2020/12/30 00:01:34;;;;;;;15.77;10.87;;;4.40;99.90;;;;;;5095979;28;20436;-27
2020/12/30 00:04:02;;;;;;;12.30;10.27;;;4.40;99.90;;;;;;5095433;28;20455;-28
2020/12/30 00:06:29;;;;;;;12.57;11.27;;;4.40;99.90;;;;;;5094520;28;20467;-28
2020/12/30 00:08:55;;;;;;;20.53;11.90;;;4.30;99.90;;;;;;5094415;28;20439;-28
2020/12/30 00:11:22;;;;;;;15.00;12.47;;;4.30;99.90;;;;;;5094301;28;20821;-29
2020/12/30 00:13:49;;;;;;;15.87;11.57;;;4.20;99.90;;;;;;5094667;28;20501;-28
2020/12/30 00:16:15;;;;;;;14.93;11.83;;;4.00;99.90;;;;;;5093813;28;20463;-28
2020/12/30 00:18:42;;;;;;;14.73;13.07;;;4.00;99.90;;;;;;5093366;28;20513;-28
2020/12/30 00:21:11;;;;;;;16.60;12.50;;;3.90;99.90;;;;;;5093528;28;20431;-28
2020/12/30 00:23:38;;;;;;;10.67;9.57;;;3.90;99.90;;;;;;5094912;28;20500;-29
2020/12/30 00:26:04;;;;;;;10.70;9.23;;;3.80;99.90;;;;;;5094759;28;20439;-28
2020/12/30 00:28:31;;;;;;;12.77;9.90;;;3.80;99.90;;;;;;5094870;28;20452;-28
2020/12/30 00:30:57;;;;;;;6.20;5.60;;;3.70;99.90;;;;;;5094954;28;20471;-28
2020/12/30 00:33:25;;;;;;;5.53;5.03;;;3.70;99.90;;;;;;5094835;28;20487;-28
2020/12/30 00:35:51;;;;;;;7.60;6.70;;;3.70;99.90;;;;;;5092530;28;20861;-28
2020/12/30 00:38:18;;;;;;;10.53;8.77;;;3.70;99.90;;;;;;5094137;28;21051;-28
2020/12/30 00:40:47;;;;;;;8.73;6.10;;;3.60;99.90;;;;;;5093384;28;20868;-27
2020/12/30 00:43:14;;;;;;;6.93;6.23;;;3.60;99.90;;;;;;5093266;28;20431;-27
2020/12/30 00:45:40;;;;;;;6.37;5.77;;;3.60;99.90;;;;;;5094153;28;20467;-28
2020/12/30 00:48:09;;;;;;;6.57;5.93;;;3.70;99.90;;;;;;5092969;28;20459;-28
2020/12/30 00:50:36;;;;;;;6.50;5.90;;;3.70;99.90;;;;;;5092166;28;20494;-27
2020/12/30 00:53:03;;;;;;;6.70;6.10;;;3.70;99.90;;;;;;5092264;28;20523;-28
2020/12/30 00:55:31;;;;;;;6.67;6.07;;;3.80;99.90;;;;;;5092513;28;20543;-28
2020/12/30 00:58:17;;;;;;;6.60;5.90;;;3.80;99.90;;;;;;5093489;28;20452;-28
2020/12/30 01:00:45;;;;;;;5.20;4.70;;;3.80;99.90;;;;;;5092723;28;20486;-28
2020/12/30 01:03:32;;;;;;;8.77;5.90;;;3.80;99.90;;;;;;5093047;28;20455;-27
2020/12/30 01:05:58;;;;;;;5.93;5.43;;;3.80;99.90;;;;;;5093006;28;20755;-28
2020/12/30 01:08:25;;;;;;;6.33;5.50;;;3.70;99.90;;;;;;5093369;28;20465;-28
2020/12/30 01:10:52;;;;;;;12.40;7.67;;;3.70;99.90;;;;;;5093053;28;20464;-28
2020/12/30 01:13:19;;;;;;;8.60;7.80;;;3.70;99.90;;;;;;5093958;28;20444;-28
2020/12/30 01:15:46;;;;;;;8.90;8.00;;;3.60;99.90;;;;;;5088270;28;20444;-28
2020/12/30 01:18:13;;;;;;;7.40;6.80;;;3.50;99.90;;;;;;5089619;28;20447;-28
2020/12/30 01:20:39;;;;;;;7.93;7.20;;;3.40;99.90;;;;;;5088399;28;20439;-27
2020/12/30 01:23:06;;;;;;;8.30;7.50;;;3.20;99.90;;;;;;5089369;28;20467;-27
2020/12/30 01:25:32;;;;;;;9.03;7.50;;;3.10;99.90;;;;;;5093697;28;20547;-28
2020/12/30 01:28:00;;;;;;;8.87;7.50;;;3.10;99.90;;;;;;5092887;28;20436;-27
2020/12/30 01:30:27;;;;;;;8.90;8.00;;;3.00;99.90;;;;;;5091993;28;20479;-27
2020/12/30 01:32:53;;;;;;;9.30;7.70;;;3.10;99.90;;;;;;5093188;28;20498;-28
2020/12/30 01:35:20;;;;;;;9.10;8.23;;;3.20;99.90;;;;;;5090903;28;20477;-27
2020/12/30 01:37:46;;;;;;;10.00;8.37;;;3.20;99.90;;;;;;5092241;28;20431;-27
2020/12/30 01:40:13;;;;;;;8.67;7.47;;;3.30;99.90;;;;;;5092182;28;20427;-28
2020/12/30 01:42:41;;;;;;;7.83;7.17;;;3.50;99.90;;;;;;5091944;28;20435;-27
2020/12/30 01:45:08;;;;;;;8.40;6.00;;;3.50;99.90;;;;;;5093052;28;20851;-28
2020/12/30 01:47:36;;;;;;;7.63;6.13;;;3.60;99.90;;;;;;5092191;28;20745;-28
2020/12/30 01:50:03;;;;;;;8.17;6.80;;;3.70;99.90;;;;;;5091325;28;20556;-28
2020/12/30 01:52:31;;;;;;;8.13;7.33;;;3.70;99.90;;;;;;5091655;28;20490;-28
2020/12/30 01:54:58;;;;;;;6.93;6.23;;;3.70;99.90;;;;;;5093285;28;20873;-28
2020/12/30 01:57:25;;;;;;;9.40;6.47;;;3.70;99.90;;;;;;5092760;28;20447;-28
2020/12/30 01:59:51;;;;;;;7.10;6.30;;;3.80;99.90;;;;;;5092083;28;20442;-27
2020/12/30 02:02:22;;;;;;;7.17;6.53;;;3.80;99.90;;;;;;5092821;28;20443;-28
2020/12/30 02:04:52;;;;;;;7.57;6.87;;;3.80;99.90;;;;;;5093282;28;20440;-28
2020/12/30 02:07:22;;;;;;;7.00;5.87;;;3.80;99.90;;;;;;5092889;28;20457;-28
2020/12/30 02:09:49;;;;;;;6.40;5.80;;;3.80;99.90;;;;;;5092824;28;20505;-27
2020/12/30 02:12:16;;;;;;;6.97;6.37;;;3.90;99.90;;;;;;5093098;28;20475;-30
2020/12/30 02:14:42;;;;;;;6.83;5.73;;;3.90;99.90;;;;;;5093390;28;20464;-27
2020/12/30 02:17:13;;;;;;;7.50;6.40;;;3.90;99.90;;;;;;5093245;28;20440;-27
2020/12/30 02:19:41;;;;;;;6.57;5.60;;;4.00;99.90;;;;;;5092090;28;20447;-30
2020/12/30 02:22:10;;;;;;;7.70;6.10;;;4.00;99.90;;;;;;5092589;28;20427;-27
2020/12/30 02:24:38;;;;;;;5.60;5.20;;;4.00;99.90;;;;;;5092925;28;20440;-28
2020/12/30 02:27:06;;;;;;;6.27;5.67;;;4.00;99.90;;;;;;5091166;28;20436;-28
2020/12/30 02:29:33;;;;;;;6.63;6.13;;;4.00;99.90;;;;;;5092244;28;20489;-28
2020/12/30 02:32:01;;;;;;;7.10;6.40;;;4.00;99.90;;;;;;5091507;28;20856;-28
2020/12/30 02:34:28;;;;;;;6.30;5.80;;;3.80;99.90;;;;;;5092288;28;20471;-28
2020/12/30 02:36:55;;;;;;;7.60;6.63;;;3.70;99.90;;;;;;5091920;28;20442;-28
2020/12/30 02:39:23;;;;;;;7.67;6.90;;;3.60;99.90;;;;;;5092085;28;20452;-27
2020/12/30 02:41:51;;;;;;;6.33;5.73;;;3.60;99.90;;;;;;5092630;28;21031;-27
2020/12/30 02:44:17;;;;;;;7.37;6.07;;;3.50;99.90;;;;;;5092177;28;20436;-28
2020/12/30 02:46:44;;;;;;;6.53;5.87;;;3.50;99.90;;;;;;5091968;28;20440;-28
2020/12/30 02:49:11;;;;;;;7.70;6.80;;;3.40;99.90;;;;;;5091739;28;20935;-29
2020/12/30 02:51:42;;;;;;;8.17;7.40;;;3.30;99.90;;;;;;5092032;28;20460;-28
2020/12/30 02:54:08;;;;;;;8.40;7.63;;;3.20;99.90;;;;;;5092044;28;20439;-28
2020/12/30 02:56:36;;;;;;;8.63;7.37;;;3.20;99.90;;;;;;5092140;28;20440;-28
2020/12/30 02:59:04;;;;;;;12.17;8.40;;;3.10;99.90;;;;;;5092224;28;20547;-27
2020/12/30 03:01:30;;;;;;;7.90;7.10;;;3.00;99.90;;;;;;5092935;28;20505;-28
2020/12/30 03:03:57;;;;;;;8.53;7.77;;;3.00;99.90;;;;;;5092268;28;20454;-28
2020/12/30 03:06:24;;;;;;;7.93;7.23;;;3.00;99.90;;;;;;5091932;28;20523;-28
2020/12/30 03:08:51;;;;;;;7.93;7.23;;;2.90;99.90;;;;;;5092282;28;20535;-28
2020/12/30 03:11:18;;;;;;;8.60;7.43;;;2.90;99.90;;;;;;5092459;28;21028;-27
2020/12/30 03:13:44;;;;;;;5.70;5.20;;;2.80;99.90;;;;;;5092775;28;20435;-28
2020/12/30 03:16:12;;;;;;;6.80;6.30;;;2.70;99.90;;;;;;5091389;28;20910;-28
2020/12/30 03:18:38;;;;;;;8.20;7.50;;;2.60;99.90;;;;;;5092683;28;20448;-28
2020/12/30 03:21:05;;;;;;;6.63;5.67;;;2.50;99.90;;;;;;5091982;28;20524;-28
2020/12/30 03:23:31;;;;;;;4.70;4.30;;;2.50;99.90;;;;;;5092810;28;20752;-27
2020/12/30 03:25:58;;;;;;;5.03;4.50;;;2.40;99.90;;;;;;5091564;28;20443;-28
2020/12/30 03:28:25;;;;;;;4.00;3.80;;;2.40;99.90;;;;;;5092100;28;20447;-28
2020/12/30 03:30:51;;;;;;;4.40;4.10;;;2.30;99.90;;;;;;5091396;28;20451;-29
2020/12/30 03:33:19;;;;;;;5.17;4.73;;;2.30;99.90;;;;;;5091019;28;20462;-28
2020/12/30 03:35:46;;;;;;;7.40;6.20;;;2.20;99.90;;;;;;5091363;28;20806;-27
2020/12/30 03:38:12;;;;;;;8.93;6.60;;;2.20;99.90;;;;;;5090874;28;20436;-28
2020/12/30 03:40:39;;;;;;;12.30;7.47;;;2.20;99.90;;;;;;5092014;28;20849;-28
2020/12/30 03:43:05;;;;;;;6.90;6.23;;;2.20;99.90;;;;;;5091405;28;20489;-28
2020/12/30 03:45:32;;;;;;;6.50;5.90;;;2.10;99.90;;;;;;5090803;28;20524;-28
2020/12/30 03:47:59;;;;;;;7.30;5.50;;;2.10;99.90;;;;;;5091696;28;20456;-28
2020/12/30 03:50:27;;;;;;;7.93;5.97;;;2.00;99.90;;;;;;5090885;28;20479;-29
2020/12/30 03:52:53;;;;;;;6.30;5.70;;;2.00;99.90;;;;;;5093195;28;20471;-28
2020/12/30 03:55:20;;;;;;;6.03;5.50;;;2.00;99.90;;;;;;5095966;28;20432;-28
2020/12/30 03:57:47;;;;;;;5.80;5.30;;;2.00;99.90;;;;;;5095788;28;20531;-28
2020/12/30 04:00:18;;;;;;;7.77;6.97;;;1.90;99.90;;;;;;5094890;28;20431;-28
2020/12/30 04:02:44;;;;;;;5.23;4.73;;;1.90;99.90;;;;;;5094772;28;20459;-28
2020/12/30 04:05:11;;;;;;;4.83;4.40;;;1.80;99.90;;;;;;5095038;28;20468;-27
2020/12/30 04:07:39;;;;;;;4.93;4.53;;;1.80;99.90;;;;;;5094671;28;20868;-28
2020/12/30 04:10:05;;;;;;;5.80;5.30;;;1.80;99.90;;;;;;5094535;28;21117;-27
2020/12/30 04:12:32;;;;;;;4.57;4.17;;;1.80;99.90;;;;;;5092615;28;20901;-28
2020/12/30 04:14:59;;;;;;;5.77;5.20;;;1.80;99.90;;;;;;5093826;28;20554;-28
2020/12/30 04:17:25;;;;;;;6.10;5.50;;;1.80;99.90;;;;;;5093306;28;20436;-27
2020/12/30 04:19:52;;;;;;;7.27;6.50;;;1.80;99.90;;;;;;5094496;28;20443;-26
2020/12/30 04:22:18;;;;;;;6.20;5.57;;;1.70;99.90;;;;;;5093065;28;20447;-28
2020/12/30 04:24:46;;;;;;;6.37;5.77;;;1.80;99.90;;;;;;5093462;28;20839;-28
2020/12/30 04:27:12;;;;;;;6.10;5.50;;;1.70;99.90;;;;;;5093911;28;20436;-28
2020/12/30 04:29:39;;;;;;;9.20;4.63;;;1.70;99.90;;;;;;5093469;28;20476;-28
2020/12/30 04:32:05;;;;;;;6.20;4.97;;;1.70;99.90;;;;;;5093578;28;20939;-27
2020/12/30 04:34:32;;;;;;;6.77;5.33;;;1.70;99.90;;;;;;5093673;28;20514;-28
2020/12/30 04:36:59;;;;;;;6.83;5.27;;;1.60;99.90;;;;;;5092460;28;20526;-28
2020/12/30 04:39:25;;;;;;;5.07;4.67;;;1.60;99.90;;;;;;5092908;28;20436;-28
2020/12/30 04:41:57;;;;;;;6.50;5.90;;;1.60;99.90;;;;;;5093204;28;20865;-28
2020/12/30 04:44:27;;;;;;;6.87;6.20;;;1.50;99.90;;;;;;5093696;28;20443;-28
2020/12/30 04:46:56;;;;;;;6.53;5.93;;;1.40;99.90;;;;;;5092841;28;20443;-28
2020/12/30 04:49:23;;;;;;;7.97;6.40;;;1.40;99.90;;;;;;5093384;28;20509;-27
2020/12/30 04:51:49;;;;;;;8.13;7.07;;;1.40;99.90;;;;;;5092812;28;21097;-27
2020/12/30 04:54:16;;;;;;;7.53;6.27;;;1.40;99.90;;;;;;5093394;28;21145;-29
2020/12/30 04:57:01;;;;;;;8.30;6.47;;;1.40;99.90;;;;;;5092555;28;20494;-28
2020/12/30 04:59:29;;;;;;;8.03;6.80;;;1.30;99.90;;;;;;5092449;28;20493;-27
2020/12/30 05:02:03;;;;;;;9.60;7.70;;;1.30;99.90;;;;;;5093588;28;20439;-28
2020/12/30 05:04:31;;;;;;;9.20;7.13;;;1.30;99.90;;;;;;5092256;28;20450;-28
2020/12/30 05:07:02;;;;;;;7.40;6.50;;;1.30;99.90;;;;;;5091307;28;20440;-28
2020/12/30 05:09:30;;;;;;;8.17;7.43;;;1.30;99.90;;;;;;5091268;28;20451;-28
2020/12/30 05:11:57;;;;;;;15.97;6.80;;;1.20;99.90;;;;;;5091786;28;20468;-27
2020/12/30 05:14:24;;;;;;;9.33;6.70;;;1.20;99.90;;;;;;5091018;28;20753;-28
2020/12/30 05:16:51;;;;;;;6.83;6.33;;;1.20;99.90;;;;;;5091314;28;20447;-29
2020/12/30 05:19:17;;;;;;;6.67;6.00;;;1.20;99.90;;;;;;5090231;28;20451;-27
2020/12/30 05:21:44;;;;;;;6.20;5.60;;;1.20;99.90;;;;;;5092068;28;20443;-27
2020/12/30 05:24:12;;;;;;;9.70;7.67;;;1.20;99.90;;;;;;5092305;28;20439;-28
2020/12/30 05:26:41;;;;;;;7.10;6.03;;;1.20;99.90;;;;;;5091635;28;20440;-28
2020/12/30 05:29:09;;;;;;;6.47;5.87;;;1.20;99.90;;;;;;5091423;28;20432;-28
2020/12/30 05:31:37;;;;;;;6.13;5.57;;;1.10;99.90;;;;;;5092355;28;20583;-27
2020/12/30 05:34:03;;;;;;;5.90;5.40;;;1.10;99.90;;;;;;5091561;28;20456;-28
2020/12/30 05:36:30;;;;;;;8.03;5.87;;;1.10;99.90;;;;;;5092497;28;20995;-28
2020/12/30 05:38:57;;;;;;;7.93;6.23;;;1.10;99.90;;;;;;5093209;28;20440;-29
2020/12/30 05:41:23;;;;;;;6.53;5.80;;;1.10;99.90;;;;;;5091702;28;20440;-29
2020/12/30 05:43:50;;;;;;;11.20;6.57;;;1.00;99.90;;;;;;5092549;28;20900;-29
2020/12/30 05:46:27;;;;;;;7.23;6.40;;;1.00;99.90;;;;;;5091514;28;20451;-27
2020/12/30 05:48:54;;;;;;;7.45;6.75;;;1.00;99.90;;;;;;5091055;28;21173;-28
2020/12/30 05:51:28;;;;;;;7.80;6.63;;;1.00;99.90;;;;;;5089519;28;20225;-29
2020/12/30 05:54:12;;;;;;;6.80;6.10;;;1.00;99.90;;;;;;5089244;28;20888;-29
2020/12/30 05:56:39;;;;;;;7.70;6.17;;;1.00;99.90;;;;;;5089463;28;20443;-28
2020/12/30 05:59:07;;;;;;;6.27;5.67;;;1.00;99.90;;;;;;5087573;28;20447;-28
2020/12/30 06:01:39;;;;;;;6.33;5.73;;;1.00;99.90;;;;;;5090073;28;20436;-30
2020/12/30 06:04:17;;;;;;;6.73;6.07;;;1.10;99.90;;;;;;5089384;28;20926;-30
2020/12/30 06:06:45;;;;;;;10.70;6.90;;;1.30;99.90;;;;;;5089689;28;20440;-29
2020/12/30 06:09:16;;;;;;;11.10;6.87;;;1.40;99.90;;;;;;5089722;28;20466;-27
2020/12/30 06:11:51;;;;;;;12.70;8.53;;;1.40;99.90;;;;;;5090029;28;20818;-29
2020/12/30 06:14:19;;;;;;;9.20;8.40;;;1.50;99.90;;;;;;5090092;28;20444;-29
2020/12/30 06:16:47;;;;;;;10.50;8.33;;;1.60;99.90;;;;;;5088863;28;20448;-28
2020/12/30 06:19:14;;;;;;;7.40;6.70;;;1.70;99.90;;;;;;5088552;28;21132;-29
2020/12/30 06:21:43;;;;;;;9.40;7.00;;;1.70;99.90;;;;;;5087985;28;20436;-27
2020/12/30 06:24:13;;;;;;;6.90;6.20;;;1.70;99.90;;;;;;5088678;28;21227;-28
2020/12/30 06:26:42;;;;;;;10.23;7.33;;;1.60;99.90;;;;;;5089714;28;20523;-29
2020/12/30 06:29:13;;;;;;;6.20;5.70;;;1.60;99.90;;;;;;5087406;28;20482;-28
2020/12/30 06:31:45;;;;;;;7.10;6.33;;;1.50;99.90;;;;;;5088856;28;20467;-29
2020/12/30 06:34:12;;;;;;;7.63;6.70;;;1.50;99.90;;;;;;5087168;28;20508;-30
2020/12/30 06:36:42;;;;;;;9.70;8.10;;;1.40;99.90;;;;;;5087316;28;20923;-28
2020/12/30 06:39:19;;;;;;;9.37;7.93;;;1.30;99.90;;;;;;5087134;28;20440;-28
2020/12/30 06:41:57;;;;;;;12.17;8.70;;;1.30;99.90;;;;;;5088363;28;20432;-29
2020/12/30 06:44:40;;;;;;;10.70;9.03;;;1.20;99.90;;;;;;5087210;28;20556;-30
2020/12/30 06:47:09;;;;;;;12.60;10.93;;;1.20;99.90;;;;;;5085072;28;20436;-28
2020/12/30 06:49:35;;;;;;;11.37;8.87;;;1.20;99.90;;;;;;5085410;28;20471;-28
2020/12/30 06:52:03;;;;;;;6.83;6.23;;;1.20;99.90;;;;;;5085300;28;20495;-32
2020/12/30 06:54:46;;;;;;;9.63;7.33;;;1.20;99.90;;;;;;5084739;28;20443;-28
2020/12/30 06:57:37;;;;;;;9.00;6.77;;;1.20;99.90;;;;;;5084171;28;20542;-30
2020/12/30 07:00:38;;;;;;;8.73;7.87;;;1.20;99.90;;;;;;5081701;28;20490;-30
2020/12/30 07:03:16;;;;;;;7.20;6.50;;;1.20;99.90;;;;;;5080756;28;20512;-28
2020/12/30 07:05:43;;;;;;;10.53;8.17;;;1.20;99.90;;;;;;5080112;28;21198;-31
2020/12/30 07:08:12;;;;;;;8.63;7.77;;;1.20;99.90;;;;;;5083024;28;20451;-28
2020/12/30 07:10:43;;;;;;;8.13;7.33;;;1.20;99.90;;;;;;5080565;28;20543;-27
2020/12/30 07:13:10;;;;;;;9.03;8.00;;;1.20;99.90;;;;;;5079287;28;20463;-27
2020/12/30 07:15:37;;;;;;;9.60;8.70;;;1.10;99.90;;;;;;5078226;28;20476;-27
2020/12/30 07:18:08;;;;;;;11.10;9.60;;;1.20;99.90;;;;;;5079326;28;20451;-28
2020/12/30 07:20:41;;;;;;;10.37;9.27;;;1.20;99.90;;;;;;5081312;28;20483;-30
2020/12/30 07:23:11;;;;;;;11.97;8.93;;;1.20;99.90;;;;;;5080497;28;21006;-27
2020/12/30 07:25:39;;;;;;;9.77;8.03;;;1.20;99.90;;;;;;5079864;28;20749;-29
2020/12/30 07:28:06;;;;;;;10.73;8.30;;;1.20;99.90;;;;;;5083956;28;20479;-28
2020/12/30 07:30:33;;;;;;;8.70;7.90;;;1.20;99.90;;;;;;5083728;28;20478;-28
2020/12/30 07:33:00;;;;;;;9.40;8.40;;;1.20;99.90;;;;;;5083591;28;21148;-29
2020/12/30 07:35:28;;;;;;;8.73;7.83;;;1.20;99.90;;;;;;5091361;28;20453;-28
2020/12/30 07:38:01;;;;;;;10.90;9.77;;;1.20;99.90;;;;;;5103807;28;20482;-29
2020/12/30 07:40:31;;;;;;;9.03;8.13;;;1.20;99.90;;;;;;5104074;28;20461;-28
2020/12/30 07:42:59;;;;;;;12.37;9.47;;;1.20;99.90;;;;;;5083608;28;20451;-27
2020/12/30 07:45:31;;;;;;;10.00;8.70;;;1.20;99.90;;;;;;5081269;28;20440;-29
2020/12/30 07:47:57;;;;;;;11.17;9.00;;;1.20;99.90;;;;;;5105627;28;20462;-30
2020/12/30 07:50:24;;;;;;;13.90;9.80;;;1.20;99.90;;;;;;5101309;28;20474;-27
2020/12/30 07:52:52;;;;;;;10.70;9.60;;;1.20;99.90;;;;;;5081820;28;20456;-30
2020/12/30 07:55:31;;;;;;;12.97;8.80;;;1.30;99.90;;;;;;5083889;28;21217;-28
2020/12/30 07:57:57;;;;;;;10.82;9.00;;;1.30;99.90;;;;;;5081447;28;20542;-29
2020/12/30 08:00:24;;;;;;;11.47;10.27;;;1.30;99.90;;;;;;5084482;28;20214;-29
2020/12/30 08:02:56;;;;;;;11.47;10.27;;;1.30;99.90;;;;;;5083679;28;21034;-30
2020/12/30 08:05:22;;;;;;;12.70;8.83;;;1.40;99.90;;;;;;5083481;28;20428;-30
2020/12/30 08:07:49;;;;;;;11.93;8.30;;;1.40;99.90;;;;;;5083646;28;20447;-29
2020/12/30 08:10:21;;;;;;;13.30;10.03;;;1.50;99.90;;;;;;5082991;28;20506;-28
2020/12/30 08:12:49;;;;;;;11.73;9.90;;;1.60;99.90;;;;;;5083260;28;20471;-30
2020/12/30 08:15:16;;;;;;;14.27;12.50;;;1.60;99.90;;;;;;5082610;28;20563;-29
2020/12/30 08:17:42;;;;;;;10.97;9.27;;;1.70;99.90;;;;;;5081842;28;20467;-28
2020/12/30 08:20:09;;;;;;;12.07;9.70;;;1.70;99.90;;;;;;5082376;28;20457;-29
2020/12/30 08:22:35;;;;;;;8.90;7.95;;;1.70;99.90;;;;;;5080892;28;20436;-31
2020/12/30 08:25:04;;;;;;;12.90;7.83;;;1.70;99.90;;;;;;5082134;28;20301;-28
2020/12/30 08:27:31;;;;;;;11.77;7.90;;;1.60;99.90;;;;;;5083940;28;20455;-28
2020/12/30 08:30:00;;;;;;;10.40;9.30;;;1.60;99.90;;;;;;5081725;28;20484;-28
2020/12/30 08:32:41;;;;;;;9.77;8.27;;;1.60;99.90;;;;;;5081224;28;20560;-28
2020/12/30 08:35:11;;;;;;;9.07;7.47;;;1.60;99.90;;;;;;5079494;28;20546;-29
2020/12/30 08:37:40;;;;;;;9.40;8.50;;;1.70;99.90;;;;;;5080760;28;20543;-29
2020/12/30 08:40:14;;;;;;;8.50;7.60;;;1.70;99.90;;;;;;5088983;28;20900;-28
2020/12/30 08:43:15;;;;;;;8.73;6.33;;;1.70;99.90;;;;;;5101385;28;20470;-28
2020/12/30 08:45:56;;;;;;;8.90;7.20;;;1.70;99.90;;;;;;5100427;28;20443;-28
2020/12/30 08:48:27;;;;;;;9.57;7.67;;;1.70;99.90;;;;;;5101922;28;20439;-28
2020/12/30 08:50:53;;;;;;;7.47;6.87;;;1.80;99.90;;;;;;5102743;28;20457;-29
2020/12/30 08:53:33;;;;;;;10.07;7.37;;;2.00;99.90;;;;;;5101960;27;20463;-28
2020/12/30 08:56:00;;;;;;;10.20;8.57;;;2.20;99.90;;;;;;5103161;28;20546;-29
2020/12/30 08:58:27;;;;;;;9.03;7.77;;;2.30;99.90;;;;;;5101479;28;20435;-29
2020/12/30 09:00:54;;;;;;;7.87;6.90;;;2.40;99.90;;;;;;5100610;28;20815;-28
2020/12/30 09:03:26;;;;;;;13.13;9.17;;;2.60;99.90;;;;;;5103130;28;20437;-28
2020/12/30 09:05:53;;;;;;;10.00;8.93;;;2.60;99.90;;;;;;5103661;28;20447;-28
2020/12/30 09:08:22;;;;;;;15.63;9.47;;;2.60;99.90;;;;;;5102352;28;20442;-28
2020/12/30 09:10:49;;;;;;;12.03;8.83;;;2.80;99.90;;;;;;5100159;28;20916;-30
2020/12/30 09:13:17;;;;;;;12.93;9.27;;;2.90;99.90;;;;;;5101015;28;21161;-28
2020/12/30 09:15:45;;;;;;;9.50;8.60;;;3.00;99.90;;;;;;5100513;27;20496;-28
2020/12/30 09:18:14;;;;;;;9.73;8.80;;;3.10;99.90;;;;;;5094399;28;20925;-30
2020/12/30 09:20:41;;;;;;;15.83;12.30;;;3.10;99.90;;;;;;5088451;28;20890;-27
2020/12/30 09:23:08;;;;;;;12.47;11.10;;;3.30;99.90;;;;;;5087145;28;20439;-29
2020/12/30 09:25:36;;;;;;;12.90;9.60;;;3.40;99.90;;;;;;5088599;28;20452;-29
2020/12/30 09:28:19;;;;;;;10.70;9.70;;;3.50;99.90;;;;;;5087043;28;20451;-28
2020/12/30 09:30:47;;;;;;;13.80;10.50;;;3.70;99.90;;;;;;5088023;28;21397;-29
2020/12/30 09:33:15;;;;;;;12.00;9.90;;;3.90;99.90;;;;;;5083530;28;20464;-26
2020/12/30 09:35:44;;;;;;;10.57;9.50;;;4.10;99.90;;;;;;5085805;28;20444;-29
2020/12/30 09:38:16;;;;;;;9.37;8.57;;;4.30;99.90;;;;;;5091303;28;20450;-29
2020/12/30 09:40:45;;;;;;;12.93;10.57;;;4.50;99.90;;;;;;5100445;28;20504;-28
2020/12/30 09:43:13;;;;;;;11.73;8.40;;;4.70;99.90;;;;;;5100810;28;20496;-29
2020/12/30 09:45:40;;;;;;;9.07;8.20;;;4.90;99.90;;;;;;5094152;28;20447;-27
2020/12/30 09:48:15;;;;;;;9.73;8.50;;;5.00;99.90;;;;;;5086752;28;20439;-28
2020/12/30 09:50:42;;;;;;;8.47;7.67;;;5.20;99.90;;;;;;5087471;28;20438;-29
2020/12/30 09:53:10;;;;;;;9.43;8.27;;;5.30;99.90;;;;;;5077571;28;20941;-27
2020/12/30 09:55:37;;;;;;;7.90;6.43;;;5.50;99.90;;;;;;5079580;28;20996;-26
2020/12/30 09:58:04;;;;;;;7.17;6.40;;;5.60;99.90;;;;;;5095131;28;20899;-28
2020/12/30 10:00:31;;;;;;;12.63;8.30;;;5.60;99.90;;;;;;5096892;28;20504;-28
2020/12/30 10:02:57;;;;;;;10.30;8.13;;;5.50;99.90;;;;;;5099367;28;20435;-29
2020/12/30 10:05:25;;;;;;;8.07;6.87;;;5.50;99.90;;;;;;5101582;28;20476;-28
2020/12/30 10:07:51;;;;;;;9.07;6.80;;;5.30;99.90;;;;;;5088613;28;20450;-28
2020/12/30 10:10:18;;;;;;;8.93;7.93;;;5.40;99.90;;;;;;5077221;28;20447;-29
2020/12/30 10:12:44;;;;;;;10.63;8.20;;;5.50;99.90;;;;;;5076864;28;20568;-28
2020/12/30 10:15:12;;;;;;;13.57;9.10;;;5.60;99.90;;;;;;5079109;28;20539;-28
2020/12/30 10:17:39;;;;;;;10.80;9.40;;;5.60;99.90;;;;;;5078598;28;20464;-29
2020/12/30 10:20:08;;;;;;;10.33;9.00;;;5.70;99.90;;;;;;5077917;28;20443;-29
2020/12/30 10:22:37;;;;;;;21.00;18.80;;;5.90;99.90;;;;;;5075943;28;20841;-27
2020/12/30 10:25:05;;;;;;;10.33;9.33;;;6.10;99.90;;;;;;5079746;28;20456;-27
2020/12/30 10:27:31;;;;;;;13.30;10.10;;;6.20;99.90;;;;;;5078034;28;20475;-28
2020/12/30 10:29:58;;;;;;;14.20;11.27;;;6.30;99.90;;;;;;5084831;28;20451;-29
2020/12/30 10:32:25;;;;;;;11.00;9.77;;;6.50;99.90;;;;;;5078160;28;20487;-27
2020/12/30 10:34:51;;;;;;;12.43;10.27;;;6.70;99.90;;;;;;5076788;28;20853;-27
2020/12/30 10:37:18;;;;;;;9.13;8.10;;;6.80;99.90;;;;;;5077128;28;20436;-28
2020/12/30 10:39:48;;;;;;;10.37;8.50;;;6.90;99.90;;;;;;5076237;28;20464;-26
2020/12/30 10:42:15;;;;;;;8.97;8.07;;;7.00;99.90;;;;;;5076218;28;20631;-29
2020/12/30 10:44:43;;;;;;;11.27;8.60;;;7.10;99.90;;;;;;5074581;28;20439;-27
2020/12/30 10:47:10;;;;;;;9.10;7.03;;;7.10;99.90;;;;;;5075411;28;20726;-27
2020/12/30 10:49:36;;;;;;;4.43;4.13;;;7.20;99.90;;;;;;5070330;28;20578;-28
2020/12/30 10:52:03;;;;;;;8.90;5.63;;;7.20;99.90;;;;;;5070249;28;20475;-27
2020/12/30 10:54:30;;;;;;;6.40;5.80;;;7.20;99.90;;;;;;5067862;28;20474;-29
2020/12/30 10:56:57;;;;;;;6.87;6.17;;;7.10;99.90;;;;;;5068355;28;20872;-26
2020/12/30 10:59:24;;;;;;;6.87;6.27;;;7.20;99.90;;;;;;5069694;28;20537;-27
2020/12/30 11:01:51;;;;;;;5.77;4.90;;;7.40;99.90;;;;;;5066174;28;20547;-29
2020/12/30 11:04:18;;;;;;;6.40;5.83;;;7.50;99.90;;;;;;5068335;28;20885;-28
2020/12/30 11:06:44;;;;;;;10.70;7.00;;;7.50;99.90;;;;;;5070316;28;20742;-28
2020/12/30 11:09:11;;;;;;;8.10;7.37;;;7.40;99.90;;;;;;5070427;28;20676;-27
2020/12/30 11:11:38;;;;;;;6.10;5.60;;;7.40;99.90;;;;;;5067595;28;20440;-27
2020/12/30 11:14:05;;;;;;;9.20;5.67;;;7.40;99.90;;;;;;5068088;28;20778;-28
2020/12/30 11:16:32;;;;;;;8.77;5.90;;;7.40;99.90;;;;;;5073904;28;20955;-29
2020/12/30 11:18:59;;;;;;;7.63;6.30;;;7.60;99.90;;;;;;5071884;28;20588;-30
2020/12/30 11:21:25;;;;;;;6.23;5.73;;;7.70;99.90;;;;;;5072702;28;20982;-29
2020/12/30 11:23:52;;;;;;;6.33;5.73;;;7.90;99.90;;;;;;5082760;28;20443;-28
2020/12/30 11:26:19;;;;;;;5.70;5.10;;;7.90;99.90;;;;;;5098532;28;20459;-27
2020/12/30 11:28:45;;;;;;;20.93;18.00;;;7.90;99.90;;;;;;5076634;28;20675;-27
2020/12/30 11:31:13;;;;;;;40.50;34.27;;;7.80;99.90;;;;;;5070998;28;20623;-27
2020/12/30 11:33:40;;;;;;;19.43;17.40;;;7.80;99.90;;;;;;5069558;28;20791;-27
2020/12/30 11:36:07;;;;;;;10.03;7.07;;;7.80;99.90;;;;;;5072143;28;20626;-27
2020/12/30 11:38:34;;;;;;;10.87;5.97;;;8.00;99.90;;;;;;5073051;28;20440;-28
2020/12/30 11:41:00;;;;;;;5.50;4.63;;;8.00;99.90;;;;;;5072547;28;20774;-29
2020/12/30 11:43:28;;;;;;;5.23;4.27;;;8.20;99.90;;;;;;5074159;28;20523;-27
2020/12/30 11:45:55;;;;;;;5.33;4.83;;;8.20;99.90;;;;;;5073797;28;20856;-27
2020/12/30 11:48:22;;;;;;;5.00;4.60;;;8.20;99.90;;;;;;5071287;28;20444;-27
2020/12/30 11:50:49;;;;;;;5.83;4.70;;;8.20;99.90;;;;;;5073226;28;20808;-27
2020/12/30 11:53:16;;;;;;;7.27;3.90;;;8.20;99.90;;;;;;5073158;28;20479;-27
2020/12/30 11:55:42;;;;;;;3.87;3.57;;;8.20;99.90;;;;;;5073623;28;20558;-28
2020/12/30 11:58:09;;;;;;;4.37;3.93;;;8.20;99.90;;;;;;5070939;28;20444;-27
2020/12/30 12:00:37;;;;;;;4.07;3.77;;;8.20;99.90;;;;;;5072646;28;20443;-28
2020/12/30 12:03:03;;;;;;;9.60;3.80;;;8.30;99.90;;;;;;5074656;28;20451;-28
2020/12/30 12:05:31;;;;;;;4.33;3.93;;;8.30;99.90;;;;;;5080272;28;20467;-28
2020/12/30 12:07:57;;;;;;;4.03;3.70;;;8.30;99.90;;;;;;5081158;28;20455;-27
2020/12/30 12:10:24;;;;;;;3.53;3.27;;;8.20;99.90;;;;;;5079917;28;20455;-26
2020/12/30 12:12:51;;;;;;;3.60;3.30;;;8.10;99.90;;;;;;5079646;28;20474;-28
2020/12/30 12:15:21;;;;;;;3.80;3.23;;;7.90;99.90;;;;;;5079097;28;20439;-27
2020/12/30 12:17:53;;;;;;;3.97;3.53;;;8.00;99.90;;;;;;5078292;28;20428;-28
2020/12/30 12:20:21;;;;;;;3.70;3.50;;;8.00;99.90;;;;;;5076953;28;20436;-27
2020/12/30 12:22:48;;;;;;;4.93;4.43;;;8.00;99.90;;;;;;5071291;28;20590;-28
2020/12/30 12:25:15;;;;;;;3.20;2.97;;;8.00;99.90;;;;;;5068184;28;20685;-27
2020/12/30 12:27:41;;;;;;;4.20;3.70;;;8.00;99.90;;;;;;5069863;28;20439;-29
2020/12/30 12:30:08;;;;;;;4.20;3.93;;;7.90;99.90;;;;;;5073385;28;20439;-28
2020/12/30 12:32:35;;;;;;;5.20;4.80;;;7.80;99.90;;;;;;5074840;28;20986;-27
2020/12/30 12:35:01;;;;;;;15.27;11.07;;;7.70;99.90;;;;;;5074400;28;20435;-29
2020/12/30 12:37:28;;;;;;;5.90;5.20;;;7.70;99.90;;;;;;5076057;28;20852;-26
2020/12/30 12:39:55;;;;;;;10.50;7.20;;;7.70;99.90;;;;;;5072715;28;20651;-27
2020/12/30 12:42:23;;;;;;;7.40;6.70;;;7.70;99.90;;;;;;5072162;28;20766;-28
2020/12/30 12:44:51;;;;;;;5.53;5.03;;;7.70;99.90;;;;;;5073760;28;20436;-29
2020/12/30 12:47:17;;;;;;;4.80;4.40;;;7.70;99.90;;;;;;5072927;28;20727;-28
2020/12/30 12:49:45;;;;;;;4.00;3.80;;;7.70;99.90;;;;;;5071572;28;20780;-27
2020/12/30 12:52:13;;;;;;;4.80;4.50;;;7.50;99.90;;;;;;5071528;28;20514;-27
2020/12/30 12:54:39;;;;;;;5.30;4.90;;;7.50;99.90;;;;;;5074177;28;20452;-29
2020/12/30 12:57:07;;;;;;;4.30;4.10;;;7.40;99.90;;;;;;5073111;28;20676;-27
2020/12/30 12:59:35;;;;;;;5.43;4.07;;;7.20;99.90;;;;;;5071614;28;20442;-28